This is the latest recevied weather packets stored in our database for station/object NO9B. If no packets are shown the sender has not sent any weather packets the latest 10 day(s).
| Time | Temp. | Humidity | Pressure | Rain* | Wind** | Luminosity | Snow |
|---|---|---|---|---|---|---|---|
| 1787522765 | 23.89° C | 50% | 1017.4 hPa | 0 mm | - | 76 W/m² | - |
| 1787522459 | 23.33° C | 53% | 1017.3 hPa | 0 mm | - | 42 W/m² | - |
| 1787522155 | 23.33° C | 52% | 1017.3 hPa | 0 mm | - | 271 W/m² | - |
| 1787521855 | 22.78° C | 55% | 1017.4 hPa | 0 mm | - | 76 W/m² | - |
| 1787521554 | 23.33° C | 53% | 1017.3 hPa | 0 mm | - | 25 W/m² | - |
| 1787521249 | 23.33° C | 54% | 1017.3 hPa | 0 mm | - | 52 W/m² | - |
| 1787520944 | 23.89° C | 49% | 1017.5 hPa | 0 mm | - | 49 W/m² | - |
| 1787520640 | 23.89° C | 50% | 1017.4 hPa | 0 mm | - | 55 W/m² | - |
| 1787520335 | 23.89° C | 50% | 1017.4 hPa | 0 mm | - | 60 W/m² | - |
| 1787520031 | 24.44° C | 50% | 1017.4 hPa | 0 mm | - | 101 W/m² | - |
| 1787519726 | 24.44° C | 50% | 1017.5 hPa | 0 mm | - | 61 W/m² | - |
| 1787519426 | 24.44° C | 51% | 1017.5 hPa | 0 mm | - | 72 W/m² | - |
| 1787519121 | 23.89° C | 51% | 1017.6 hPa | 0 mm | - | 428 W/m² | - |
| 1787518816 | 24.44° C | 51% | 1017.7 hPa | 0 mm | - | 64 W/m² | - |
| 1787518513 | 25° C | 48% | 1017.6 hPa | 0 mm | - | 82 W/m² | - |
| 1787518212 | 25° C | 47% | 1017.8 hPa | 0 mm | - | 427 W/m² | - |
| 1787517908 | 24.44° C | 48% | 1017.7 hPa | 0 mm | - | 448 W/m² | - |
| 1787517603 | 25.56° C | 47% | 1017.9 hPa | 0 mm | - | 452 W/m² | - |
| 1787517301 | 25° C | 51% | 1017.6 hPa | 0 mm | - | 466 W/m² | - |
| 1787516999 | 25° C | 50% | 1017.7 hPa | 0 mm | - | 404 W/m² | - |
| 1787516694 | 24.44° C | 49% | 1017.9 hPa | 0 mm | - | 485 W/m² | - |
| 1787516389 | 25.56° C | 47% | 1017.9 hPa | 0 mm | - | 343 W/m² | - |
| 1787516084 | 25.56° C | 48% | 1017.7 hPa | 0 mm | - | 518 W/m² | - |
| 1787515779 | 25° C | 53% | 1017.8 hPa | 0 mm | - | 528 W/m² | - |
| 1787515476 | 25° C | 50% | 1017.8 hPa | 0 mm | - | 521 W/m² | - |
* Rain latest hour (hover to see other rain measurements)
** Current wind speed in m/s (hover to see current wind gust speed)